WetterOnline ( https://www.wetteronline.de )

Wetter aktuell Langen Brütz

Aktuelles Wetter: Schwerin (68m)

6-stündlich | Neueste Meldungen
Ortszeit Temperatur Wetter
Do, 01.10. 2:00 11.9° C wolkenlos
Mi, 30.09. 20:00 14.0° C wolkenlos
Mi, 30.09. 14:00 18.0° C fast wolkenlos
Mi, 30.09. 8:00 8.6° C wolkig
Mi, 30.09. 2:00 10.7° C bedeckt
Di, 29.09. 20:00 12.9° C wolkenlos
Di, 29.09. 14:00 18.4° C wolkenlos
Di, 29.09. 8:00 7.6° C wolkenlos
Ortszeit Temperatur Wetter
Do, 01.10. 7:00 10.8° C bedeckt
Do, 01.10. 6:50 10.8° C bedeckt
Do, 01.10. 6:40 10.9° C bedeckt
Do, 01.10. 6:30 10.9° C bedeckt
Do, 01.10. 6:20 10.9° C bedeckt
Do, 01.10. 6:10 10.9° C bedeckt
Do, 01.10. 6:00 10.8° C Nebel
Do, 01.10. 5:30 10.9° C Nebel
Do, 01.10. 5:00 10.9° C wolkig
Do, 01.10. 4:30 10.4° C wolkenlos
Do, 01.10. 4:00 10.7° C wolkenlos
Ortszeit Relative Feuchte Sichtweite
Do, 01.10. 2:00 96% 22 km
Mi, 30.09. 20:00 82% 40 km
Mi, 30.09. 14:00 57% 45 km
Mi, 30.09. 8:00 98% 8 km
Mi, 30.09. 2:00 92% 35 km
Di, 29.09. 20:00 83% 35 km
Di, 29.09. 14:00 51% 55 km
Di, 29.09. 8:00 100% 12 km
Ortszeit Relative Feuchte Sichtweite
Do, 01.10. 7:00 99% 3.1 km
Do, 01.10. 6:50 99% -
Do, 01.10. 6:40 99% -
Do, 01.10. 6:30 99% 2.5 km
Do, 01.10. 6:20 99% -
Do, 01.10. 6:10 99% -
Do, 01.10. 6:00 100% 0.8 km
Do, 01.10. 5:30 100% 0.5 km
Do, 01.10. 5:00 99% 2.9 km
Do, 01.10. 4:30 99% 2.7 km
Do, 01.10. 4:00 98% 1.7 km
Ortszeit Niederschlagsmenge Niederschlagsart
Do, 01.10. 2:00 0.0 l/m2 in 6 Std. -
Mi, 30.09. 20:00 0.0 l/m2 in 12 Std. -
Mi, 30.09. 14:00 0.0 l/m2 in 6 Std. -
Mi, 30.09. 8:00 0.0 l/m2 in 12 Std. -
Mi, 30.09. 2:00 0.0 l/m2 in 6 Std. -
Di, 29.09. 20:00 0.0 l/m2 in 12 Std. -
Di, 29.09. 14:00 0.0 l/m2 in 6 Std. -
Di, 29.09. 8:00 0.0 l/m2 in 12 Std. -
Ortszeit Niederschlagsmenge Niederschlagsart
Do, 01.10. 7:00 0.0 l/m2 in 1 Std. -
Do, 01.10. 6:50 keine Meldung -
Do, 01.10. 6:40 keine Meldung -
Do, 01.10. 6:30 0.0 l/m2 in 1 Std. -
Do, 01.10. 6:20 keine Meldung -
Do, 01.10. 6:10 keine Meldung -
Do, 01.10. 6:00 0.0 l/m2 in 1 Std. -
Do, 01.10. 5:30 0.0 l/m2 in 1 Std. -
Do, 01.10. 5:00 0.0 l/m2 in 1 Std. -
Do, 01.10. 4:30 0.0 l/m2 in 1 Std. -
Do, 01.10. 4:00 0.0 l/m2 in 1 Std. -
Ortszeit Stärke Spitze Richtung
km/h Bft. km/h Grad Sektor
Do, 01.10. 2:00 11 2 18 100° O
Mi, 30.09. 20:00 7 2 18 110° O
Mi, 30.09. 14:00 7 2 18 180° S
Mi, 30.09. 8:00 4 1 14 180° S
Mi, 30.09. 2:00 4 1 11 120° SO
Di, 29.09. 20:00 4 1 25 150° SO
Di, 29.09. 14:00 11 2 22 190° S
Di, 29.09. 8:00 4 1 7 180° S
Ortszeit Stärke Spitze Richtung
km/h Bft. km/h Grad Sektor
Do, 01.10. 7:00 13 3 22 100° O
Do, 01.10. 6:50 13 3 - 100° O
Do, 01.10. 6:40 13 3 - 100° O
Do, 01.10. 6:30 13 3 22 100° O
Do, 01.10. 6:20 13 3 - 100° O
Do, 01.10. 6:10 13 3 - 110° O
Do, 01.10. 6:00 13 3 24 100° O
Do, 01.10. 5:30 14 3 22 110° O
Do, 01.10. 5:00 7 2 14 100° O
Do, 01.10. 4:30 7 2 11 110° O
Do, 01.10. 4:00 7 2 18 110° O
Ortszeit Untergrenze Bedeckung Gattung
total tief tief mittel hoch
Do, 01.10. 2:00 - 0/8 0/8 - - -
Mi, 30.09. 20:00 - 0/8 0/8 - - -
Mi, 30.09. 14:00 10500 m 1/8 0/8 - - -
Mi, 30.09. 8:00 3000 m 5/8 5/8 - - -
Mi, 30.09. 2:00 2100 m 8/8 8/8 - - -
Di, 29.09. 20:00 - 0/8 0/8 - - -
Di, 29.09. 14:00 - 0/8 0/8 - - -
Di, 29.09. 8:00 - 0/8 0/8 - - -
Ortszeit Bedeckungsgrad in Achtel und Wolkenuntergrenze
Do, 01.10. 7:00 8(60m)
Do, 01.10. 6:50 8(60m)
Do, 01.10. 6:40 8(60m)
Do, 01.10. 6:30 8(30m)
Do, 01.10. 6:20 8(30m)
Do, 01.10. 6:10 8(30m)
Do, 01.10. 6:00 8(<30m)
Do, 01.10. 5:30 8(<30m)
Do, 01.10. 5:00 5(30m)
Do, 01.10. 4:30 keine Wolken
Do, 01.10. 4:00 keine Wolken
Ortszeit Luftdruck NN (hPa) Tendenz (hPa in 3 Std.)
Do, 01.10. 2:00 1013 - 1,5
Mi, 30.09. 20:00 1014 - 0,3
Mi, 30.09. 14:00 1016 - 1,0
Mi, 30.09. 8:00 1017 0,0
Mi, 30.09. 2:00 1017 - 0,3
Di, 29.09. 20:00 1017 + 1,0
Di, 29.09. 14:00 1016 - 0,2
Di, 29.09. 8:00 1016 + 1,0
Ortszeit Luftdruck NN (hPa) Tendenz (hPa in 3 Std.)
Do, 01.10. 7:00 1010 - 1,2
Do, 01.10. 6:50 1010 keine Meldung
Do, 01.10. 6:40 1010 keine Meldung
Do, 01.10. 6:30 1010 - 1,3
Do, 01.10. 6:20 1010 keine Meldung
Do, 01.10. 6:10 1010 keine Meldung
Do, 01.10. 6:00 1011 - 1,4
Do, 01.10. 5:30 1011 - 1,4
Do, 01.10. 5:00 1011 - 1,6
Do, 01.10. 4:30 1011 - 2,1
Do, 01.10. 4:00 1011 - 2,0
Ortszeit Schneehöhe (cm)
Do, 01.10. 2:00 -
Mi, 30.09. 20:00 -
Mi, 30.09. 14:00 -
Mi, 30.09. 8:00 -
Mi, 30.09. 2:00 -
Di, 29.09. 20:00 -
Di, 29.09. 14:00 -
Di, 29.09. 8:00 -
Ortszeit Schneehöhe (cm)
Do, 01.10. 7:00 -
Do, 01.10. 6:50 -
Do, 01.10. 6:40 -
Do, 01.10. 6:30 -
Do, 01.10. 6:20 -
Do, 01.10. 6:10 -
Do, 01.10. 6:00 -
Do, 01.10. 5:30 -
Do, 01.10. 5:00 -
Do, 01.10. 4:30 -
Do, 01.10. 4:00 -
Link zu dieser Seite / Seite empfehlen

Das Wetter in ...